EGBB - Birmingham Airport
Distance from station: E 5mi, 14km
Updated: 10/22/2017 1:20am
Partly Cloudy
Partly Cloudy
 Wind from W
Wind: W 13 mph , 20 km/h
Temperature: 50°F , 10°C
Wind Chill: 45°F , 7°C
Dew Point: 41°F , 5°C
Humidity: 71%
Barometer: 29.8 inHg , 1009 hPa
Clouds: Partly Cloudy
Visibility: 6 miles , 10 km
Cloud details: Partly Cloudy 3500 ft
2017/10/22 08:20 EGBB 220820Z 27011KT 9999 SCT035 10/05 Q1009